Time;durP1;ratioP1;P1;durP2;ratioP2;P2;SDS_P1;SDS_P2;PMS_P1;PMS_P2;Temp;Humidity;BMP_temperature;BMP_pressure;BME280_temperature;BME280_humidity;BME280_pressure;Samples;Min_cycle;Max_cycle;Signal;HPM_P1;HPM_P2
2022/01/09 00:00:20;;;;;;;7.90;4.72;;;0.70;67.90;;;;;;5049607;28;20040;-54
2022/01/09 00:02:46;;;;;;;5.68;3.97;;;0.80;67.70;;;;;;5057363;28;20072;-56
2022/01/09 00:05:12;;;;;;;5.43;3.70;;;0.80;67.60;;;;;;5048709;28;20063;-55
2022/01/09 00:07:38;;;;;;;8.13;5.13;;;0.80;67.60;;;;;;5043793;28;20029;-56
2022/01/09 00:10:06;;;;;;;8.10;3.92;;;0.90;67.50;;;;;;5056990;28;20496;-52
2022/01/09 00:12:32;;;;;;;10.15;4.22;;;0.90;67.10;;;;;;5044075;28;20018;-57
2022/01/09 00:14:58;;;;;;;5.28;4.00;;;0.90;67.20;;;;;;5040673;28;20026;-56
2022/01/09 00:17:23;;;;;;;5.85;4.03;;;1.00;67.30;;;;;;5046606;28;20051;-56
2022/01/09 00:19:49;;;;;;;8.23;5.00;;;1.00;67.20;;;;;;5056707;28;20033;-55
2022/01/09 00:22:18;;;;;;;7.65;5.10;;;1.10;67.30;;;;;;5047514;28;20056;-55
2022/01/09 00:24:44;;;;;;;6.82;4.55;;;1.10;67.10;;;;;;5054586;28;20029;-57
2022/01/09 00:27:09;;;;;;;8.07;6.15;;;1.20;67.10;;;;;;5056908;28;20025;-54
2022/01/09 00:29:35;;;;;;;6.72;4.47;;;1.20;67.00;;;;;;5050704;28;20075;-55
2022/01/09 00:32:01;;;;;;;6.63;4.93;;;1.20;66.90;;;;;;5041050;28;20025;-52
2022/01/09 00:34:26;;;;;;;7.78;4.72;;;1.30;66.80;;;;;;5056587;28;20082;-55
2022/01/09 00:36:52;;;;;;;8.20;5.45;;;1.20;66.40;;;;;;5056281;28;20465;-55
2022/01/09 00:39:17;;;;;;;10.35;6.40;;;1.20;66.50;;;;;;5054974;28;20032;-54
2022/01/09 00:41:43;;;;;;;6.28;4.45;;;1.20;66.60;;;;;;5056144;28;20108;-52
2022/01/09 00:44:09;;;;;;;6.53;4.25;;;1.20;66.80;;;;;;5055508;28;20056;-54
2022/01/09 00:46:35;;;;;;;8.27;5.45;;;1.20;66.90;;;;;;5042600;28;20021;-54
2022/01/09 00:49:04;;;;;;;7.63;4.53;;;1.20;66.90;;;;;;5048815;28;20120;-56
2022/01/09 00:51:31;;;;;;;7.75;5.60;;;1.30;66.90;;;;;;5050392;28;20040;-56
2022/01/09 00:53:56;;;;;;;9.40;5.30;;;1.30;66.90;;;;;;5048499;28;20030;-56
2022/01/09 00:56:22;;;;;;;9.07;6.25;;;1.30;66.80;;;;;;5040067;28;20056;-56
2022/01/09 00:58:48;;;;;;;9.15;5.47;;;1.40;66.90;;;;;;5042417;28;20032;-57
2022/01/09 01:01:14;;;;;;;7.55;4.63;;;1.40;67.10;;;;;;5046945;28;20037;-54
2022/01/09 01:03:39;;;;;;;9.07;5.03;;;1.40;67.30;;;;;;5065984;28;20111;-56
2022/01/09 01:06:05;;;;;;;9.20;5.30;;;1.30;67.70;;;;;;5053049;28;20041;-56
2022/01/09 01:08:31;;;;;;;10.43;6.60;;;1.30;68.00;;;;;;5054556;28;20487;-53
2022/01/09 01:10:56;;;;;;;12.85;5.50;;;1.30;68.50;;;;;;5067283;28;20472;-54
2022/01/09 01:13:22;;;;;;;9.23;5.13;;;1.30;69.50;;;;;;5051396;28;20017;-54
2022/01/09 01:15:48;;;;;;;8.88;6.68;;;1.20;69.10;;;;;;5056219;28;20021;-54
2022/01/09 01:18:13;;;;;;;11.75;6.18;;;1.20;69.80;;;;;;5042026;28;20083;-57
2022/01/09 01:20:40;;;;;;;8.57;5.72;;;1.10;70.00;;;;;;5055161;28;20129;-54
2022/01/09 01:23:06;;;;;;;10.07;6.45;;;1.10;70.40;;;;;;5055955;28;20028;-54
2022/01/09 01:25:32;;;;;;;10.98;6.97;;;1.10;70.50;;;;;;5055623;28;20087;-53
2022/01/09 01:27:58;;;;;;;10.25;5.35;;;1.10;71.10;;;;;;5055860;28;20437;-57
2022/01/09 01:30:23;;;;;;;9.07;5.20;;;1.00;71.40;;;;;;5037698;28;20100;-53
2022/01/09 01:32:49;;;;;;;9.18;5.35;;;1.00;71.40;;;;;;5047585;28;20029;-57
2022/01/09 01:35:15;;;;;;;10.77;5.82;;;0.90;71.60;;;;;;5068797;28;20033;-56
2022/01/09 01:37:42;;;;;;;7.30;5.90;;;0.90;71.60;;;;;;5045586;28;20025;-55
2022/01/09 01:40:11;;;;;;;10.90;5.45;;;1.00;72.30;;;;;;5055345;28;20060;-56
2022/01/09 01:42:37;;;;;;;8.80;6.35;;;0.90;72.20;;;;;;5055556;28;20094;-55
2022/01/09 01:45:03;;;;;;;8.73;5.35;;;0.90;72.90;;;;;;5067226;28;20056;-56
2022/01/09 01:47:29;;;;;;;10.90;6.00;;;0.80;73.20;;;;;;5045095;28;20112;-53
2022/01/09 01:49:55;;;;;;;8.10;5.75;;;0.70;73.40;;;;;;5048953;28;20487;-56
2022/01/09 01:52:28;;;;;;;8.57;4.82;;;0.60;74.20;;;;;;5053850;28;20033;-57
2022/01/09 01:54:54;;;;;;;9.23;4.85;;;0.50;74.40;;;;;;5048703;28;20025;-54
2022/01/09 01:57:20;;;;;;;6.85;4.05;;;0.40;75.30;;;;;;5055417;28;20366;-52
2022/01/09 01:59:46;;;;;;;8.35;5.15;;;0.30;75.20;;;;;;5049625;28;20095;-57
2022/01/09 02:02:11;;;;;;;9.02;5.60;;;0.30;75.90;;;;;;5046665;28;20029;-55
2022/01/09 02:04:37;;;;;;;8.13;6.20;;;0.20;76.00;;;;;;5042182;28;20108;-53
2022/01/09 02:07:03;;;;;;;8.75;4.93;;;0.20;76.60;;;;;;5054304;28;20017;-56
2022/01/09 02:09:29;;;;;;;7.43;5.00;;;0.10;76.80;;;;;;5053853;28;20028;-57
2022/01/09 02:11:55;;;;;;;7.07;4.68;;;0.10;77.10;;;;;;5054416;28;20078;-56
2022/01/09 02:14:21;;;;;;;7.65;4.88;;;0.00;77.20;;;;;;5054507;28;20358;-56
2022/01/09 02:16:51;;;;;;;8.45;5.65;;;0.00;77.40;;;;;;5052866;28;20028;-56
2022/01/09 02:19:20;;;;;;;9.70;5.65;;;0.00;77.60;;;;;;5043361;28;20056;-54
2022/01/09 02:21:45;;;;;;;9.05;5.97;;;0.00;78.10;;;;;;5042962;28;20529;-54
2022/01/09 02:24:13;;;;;;;7.60;4.72;;;-0.10;78.30;;;;;;5052748;28;20031;-56
2022/01/09 02:26:39;;;;;;;7.07;4.93;;;-0.10;78.50;;;;;;5040215;28;20025;-56
2022/01/09 02:29:07;;;;;;;7.80;5.25;;;-0.10;78.80;;;;;;5046297;28;20036;-55
2022/01/09 02:31:35;;;;;;;12.43;5.60;;;-0.20;79.10;;;;;;5045139;28;20025;-54
2022/01/09 02:34:01;;;;;;;7.45;5.10;;;-0.20;79.30;;;;;;5054549;28;20040;-54
2022/01/09 02:36:26;;;;;;;8.75;6.78;;;-0.20;79.60;;;;;;5048083;28;20053;-54
2022/01/09 02:38:52;;;;;;;10.68;6.20;;;-0.20;80.60;;;;;;5040818;28;20072;-52
2022/01/09 02:41:18;;;;;;;8.45;5.35;;;-0.30;80.30;;;;;;5053204;28;20025;-52
2022/01/09 02:43:44;;;;;;;8.35;5.60;;;-0.30;80.80;;;;;;5047430;28;20021;-56
2022/01/09 02:48:38;;;;;;;8.55;6.22;;;-0.30;80.70;;;;;;5041464;28;20029;-55
2022/01/09 02:51:13;;;;;;;8.50;5.30;;;-0.20;81.10;;;;;;5043838;28;20025;-57
2022/01/09 02:53:44;;;;;;;12.80;5.72;;;-0.20;81.20;;;;;;5067818;28;20039;-55
2022/01/09 02:56:10;;;;;;;9.27;6.40;;;-0.30;81.30;;;;;;5045171;28;20352;-56
2022/01/09 02:58:37;;;;;;;10.15;5.72;;;-0.30;81.80;;;;;;5053277;28;20033;-56
2022/01/09 03:01:05;;;;;;;12.25;6.88;;;-0.30;82.00;;;;;;5053469;28;20029;-55
2022/01/09 03:03:31;;;;;;;11.20;6.47;;;-0.30;82.00;;;;;;5053862;28;20025;-56
2022/01/09 03:05:57;;;;;;;9.23;6.10;;;-0.30;82.40;;;;;;5041639;28;20033;-54
2022/01/09 03:08:23;;;;;;;9.80;6.07;;;-0.30;83.50;;;;;;5044079;28;20033;-55
2022/01/09 03:10:48;;;;;;;10.15;5.40;;;-0.30;82.60;;;;;;5057436;28;20021;-55
2022/01/09 03:13:14;;;;;;;10.35;5.70;;;-0.30;82.70;;;;;;5044227;28;20071;-56
2022/01/09 03:15:40;;;;;;;8.35;5.47;;;-0.30;82.90;;;;;;5057364;28;20048;-55
2022/01/09 03:18:06;;;;;;;8.32;5.20;;;-0.30;82.90;;;;;;5051130;28;20028;-52
2022/01/09 03:20:31;;;;;;;10.77;5.95;;;-0.40;82.90;;;;;;5066892;28;20373;-56
2022/01/09 03:22:57;;;;;;;10.82;6.47;;;-0.30;83.40;;;;;;5057740;28;20060;-55
2022/01/09 03:25:25;;;;;;;10.27;5.95;;;-0.30;83.20;;;;;;5047387;28;20025;-56
2022/01/09 03:27:52;;;;;;;10.77;6.03;;;-0.30;83.70;;;;;;5054161;28;20021;-56
2022/01/09 03:30:20;;;;;;;9.43;6.38;;;-0.30;83.70;;;;;;5055711;28;20029;-56
2022/01/09 03:32:47;;;;;;;15.18;7.93;;;-0.30;84.20;;;;;;5046795;28;20066;-56
2022/01/09 03:35:15;;;;;;;13.70;8.00;;;-0.30;85.00;;;;;;5057460;28;20029;-54
2022/01/09 03:37:42;;;;;;;13.57;8.10;;;-0.40;85.40;;;;;;5051707;28;20063;-56
2022/01/09 03:40:11;;;;;;;17.90;9.43;;;-0.40;85.80;;;;;;5070746;28;20157;-56
2022/01/09 03:42:37;;;;;;;18.55;8.35;;;-0.40;86.40;;;;;;5047393;28;20027;-55
2022/01/09 03:45:04;;;;;;;15.35;9.35;;;-0.40;86.60;;;;;;5056754;28;20029;-53
2022/01/09 03:47:30;;;;;;;13.13;7.57;;;-0.40;86.70;;;;;;5052881;28;20063;-56
2022/01/09 03:49:56;;;;;;;13.60;8.05;;;-0.50;87.30;;;;;;5050378;28;20021;-55
2022/01/09 03:52:27;;;;;;;20.30;9.48;;;-0.50;87.30;;;;;;5056552;28;20033;-54
2022/01/09 03:54:54;;;;;;;15.95;8.15;;;-0.50;87.80;;;;;;5057619;28;20032;-53
2022/01/09 03:57:19;;;;;;;18.83;10.25;;;-0.50;87.80;;;;;;5057658;28;20037;-55
2022/01/09 03:59:45;;;;;;;19.27;10.35;;;-0.50;88.00;;;;;;5042458;28;20033;-56
2022/01/09 04:02:11;;;;;;;22.80;10.23;;;-0.50;88.20;;;;;;5046463;28;20112;-52
2022/01/09 04:04:37;;;;;;;21.23;9.73;;;-0.60;88.60;;;;;;5052397;28;20029;-54
2022/01/09 04:07:03;;;;;;;17.88;9.70;;;-0.60;88.90;;;;;;5057017;28;20090;-55
2022/01/09 04:09:39;;;;;;;18.60;10.10;;;-0.60;89.40;;;;;;5056937;28;20028;-56
2022/01/09 04:12:14;;;;;;;14.70;8.35;;;-0.60;90.00;;;;;;5054565;28;20033;-54
2022/01/09 04:14:40;;;;;;;21.20;9.90;;;-0.60;90.00;;;;;;5058226;28;20028;-55
2022/01/09 04:17:10;;;;;;;16.83;9.00;;;-0.60;90.10;;;;;;5053381;28;20061;-55
2022/01/09 04:19:36;;;;;;;17.63;9.95;;;-0.60;90.10;;;;;;5039197;28;20014;-54
2022/01/09 04:22:02;;;;;;;18.02;9.65;;;-0.60;90.20;;;;;;5049927;28;20063;-56
2022/01/09 04:24:27;;;;;;;17.38;9.50;;;-0.60;90.60;;;;;;5056640;28;20025;-51
2022/01/09 04:26:53;;;;;;;19.05;10.50;;;-0.60;90.50;;;;;;5056276;28;20047;-55
2022/01/09 04:29:18;;;;;;;19.27;9.75;;;-0.60;90.80;;;;;;5064978;28;20021;-55
2022/01/09 04:31:44;;;;;;;18.25;10.65;;;-0.60;90.80;;;;;;5056929;28;20022;-53
2022/01/09 04:34:10;;;;;;;18.58;10.32;;;-0.60;90.90;;;;;;5042593;28;20029;-52
2022/01/09 04:36:35;;;;;;;22.90;11.15;;;-0.60;91.00;;;;;;5052605;28;20381;-52
2022/01/09 04:39:01;;;;;;;22.77;12.32;;;-0.60;91.30;;;;;;5054986;28;20033;-55
2022/01/09 04:41:27;;;;;;;23.13;11.98;;;-0.60;91.40;;;;;;5056301;28;20032;-55
2022/01/09 04:43:52;;;;;;;22.23;11.55;;;-0.70;91.80;;;;;;5055013;28;20033;-54
2022/01/09 04:46:25;;;;;;;23.65;11.07;;;-0.70;91.80;;;;;;5054516;28;20033;-55
2022/01/09 04:48:53;;;;;;;26.55;12.95;;;-0.70;92.20;;;;;;5051961;28;20144;-54
2022/01/09 04:51:19;;;;;;;24.63;14.13;;;-0.70;92.40;;;;;;5054254;28;20472;-55
2022/01/09 04:53:45;;;;;;;26.67;14.18;;;-0.80;92.70;;;;;;5054238;28;20021;-55
2022/01/09 04:56:11;;;;;;;24.05;12.80;;;-0.80;92.70;;;;;;5047974;28;20457;-56
2022/01/09 04:58:36;;;;;;;29.63;15.63;;;-0.80;92.80;;;;;;5055181;28;20388;-55
2022/01/09 05:01:02;;;;;;;28.02;15.57;;;-0.80;92.90;;;;;;5055338;28;20029;-55
2022/01/09 05:03:28;;;;;;;26.77;14.63;;;-0.80;93.00;;;;;;5055126;28;20032;-52
2022/01/09 05:05:53;;;;;;;29.40;14.73;;;-0.80;92.90;;;;;;5051139;28;20049;-55
2022/01/09 05:08:19;;;;;;;29.85;15.18;;;-0.80;93.20;;;;;;5063499;28;20032;-52
2022/01/09 05:10:45;;;;;;;21.98;13.60;;;-0.90;93.00;;;;;;5050259;28;20033;-53
2022/01/09 05:13:11;;;;;;;25.70;14.18;;;-0.90;93.10;;;;;;5048531;28;20074;-55
2022/01/09 05:15:36;;;;;;;29.92;15.48;;;-0.90;93.20;;;;;;5054840;28;20025;-55
2022/01/09 05:18:04;;;;;;;30.67;16.65;;;-0.90;93.40;;;;;;5042625;28;20457;-51
2022/01/09 05:20:30;;;;;;;26.02;13.85;;;-0.90;93.80;;;;;;5041241;28;20049;-52
2022/01/09 05:22:55;;;;;;;22.13;12.95;;;-0.90;93.70;;;;;;5054715;28;20040;-53
2022/01/09 05:25:21;;;;;;;28.63;14.98;;;-0.90;93.80;;;;;;5054163;28;20029;-54
2022/01/09 05:27:47;;;;;;;28.38;14.57;;;-0.80;93.80;;;;;;5041460;28;20108;-55
2022/01/09 05:30:13;;;;;;;24.42;13.73;;;-0.80;93.60;;;;;;5063110;28;20025;-52
2022/01/09 05:32:39;;;;;;;31.98;14.50;;;-0.80;93.60;;;;;;5041293;28;20108;-53
2022/01/09 05:35:05;;;;;;;27.50;13.65;;;-0.80;93.70;;;;;;5054304;28;20365;-56
2022/01/09 05:37:31;;;;;;;28.40;12.80;;;-0.80;93.50;;;;;;5054718;28;20104;-53
2022/01/09 05:39:56;;;;;;;26.75;14.93;;;-0.80;93.40;;;;;;5054196;28;20056;-55
2022/01/09 05:42:22;;;;;;;26.42;13.52;;;-0.70;93.40;;;;;;5053169;28;20029;-55
2022/01/09 05:44:48;;;;;;;32.33;14.40;;;-0.70;93.40;;;;;;5047790;28;20037;-55
2022/01/09 05:47:13;;;;;;;24.02;12.98;;;-0.70;93.30;;;;;;5040994;28;20036;-52
2022/01/09 05:49:39;;;;;;;29.00;13.45;;;-0.70;93.30;;;;;;5045839;28;20126;-55
2022/01/09 05:52:05;;;;;;;24.95;13.98;;;-0.70;93.30;;;;;;5042090;28;20057;-52
2022/01/09 05:54:31;;;;;;;28.08;13.75;;;-0.70;93.30;;;;;;5053646;28;20477;-54
2022/01/09 05:56:56;;;;;;;18.50;11.52;;;-0.70;93.20;;;;;;5053238;28;20031;-55
2022/01/09 05:59:22;;;;;;;26.13;12.35;;;-0.60;93.20;;;;;;5067207;28;20028;-56
2022/01/09 06:01:48;;;;;;;24.08;11.85;;;-0.60;93.10;;;;;;5048064;28;20087;-55
2022/01/09 06:04:13;;;;;;;23.77;12.32;;;-0.60;93.10;;;;;;5046317;28;20033;-56
2022/01/09 06:06:39;;;;;;;28.83;14.70;;;-0.60;93.00;;;;;;5039745;28;20109;-54
2022/01/09 06:09:05;;;;;;;27.33;13.40;;;-0.60;93.00;;;;;;5046118;28;20030;-54
2022/01/09 06:11:31;;;;;;;21.63;11.65;;;-0.50;92.90;;;;;;5047165;28;20021;-52
2022/01/09 06:13:56;;;;;;;23.25;12.52;;;-0.50;92.90;;;;;;5053044;28;20028;-55
2022/01/09 06:16:24;;;;;;;20.38;11.23;;;-0.50;92.80;;;;;;5049243;28;20033;-54
2022/01/09 06:18:49;;;;;;;29.25;13.27;;;-0.50;92.80;;;;;;5038173;28;20104;-54
2022/01/09 06:21:15;;;;;;;23.45;11.88;;;-0.40;92.80;;;;;;5050059;28;20083;-54
2022/01/09 06:23:41;;;;;;;20.38;11.88;;;-0.40;92.80;;;;;;5061202;28;20078;-54
2022/01/09 06:26:06;;;;;;;21.17;11.73;;;-0.40;92.70;;;;;;5052006;28;20025;-52
2022/01/09 06:28:32;;;;;;;26.30;12.93;;;-0.40;92.70;;;;;;5048041;28;20056;-55
2022/01/09 06:30:58;;;;;;;19.45;10.52;;;-0.40;92.70;;;;;;5052221;28;20025;-51
2022/01/09 06:33:23;;;;;;;25.95;13.15;;;-0.30;92.60;;;;;;5040210;28;20025;-55
2022/01/09 06:35:49;;;;;;;23.63;11.23;;;-0.30;92.50;;;;;;5051099;28;20089;-53
2022/01/09 06:38:15;;;;;;;22.33;10.73;;;-0.20;92.50;;;;;;5051692;28;20028;-53
2022/01/09 06:40:40;;;;;;;19.42;10.05;;;-0.20;92.40;;;;;;5040858;28;20053;-52
2022/01/09 06:43:06;;;;;;;21.83;11.88;;;-0.20;92.30;;;;;;5051730;28;20032;-51
2022/01/09 06:45:32;;;;;;;23.02;11.90;;;-0.20;92.20;;;;;;5047705;28;20030;-52
2022/01/09 06:47:58;;;;;;;21.58;10.88;;;-0.20;92.10;;;;;;5048869;28;20407;-51
2022/01/09 06:50:25;;;;;;;25.70;11.23;;;-0.20;92.20;;;;;;5052319;28;20025;-54
2022/01/09 06:52:51;;;;;;;24.38;11.35;;;-0.20;92.20;;;;;;5047184;28;20024;-55
2022/01/09 06:55:17;;;;;;;21.83;14.45;;;-0.20;92.10;;;;;;5046136;28;20384;-51
2022/01/09 06:57:43;;;;;;;25.90;11.85;;;-0.20;92.10;;;;;;5052434;28;20447;-51
2022/01/09 07:00:10;;;;;;;22.02;11.90;;;-0.20;92.00;;;;;;5053551;28;20131;-53
2022/01/09 07:02:37;;;;;;;23.23;11.93;;;-0.10;92.00;;;;;;5039349;28;20094;-54
2022/01/09 07:05:03;;;;;;;18.30;10.30;;;-0.10;92.00;;;;;;5044881;28;20033;-56
2022/01/09 07:07:29;;;;;;;26.05;12.07;;;-0.10;91.90;;;;;;5050714;28;20021;-54
2022/01/09 07:09:55;;;;;;;20.33;10.82;;;-0.10;92.10;;;;;;5046923;28;20523;-55
2022/01/09 07:12:20;;;;;;;21.40;10.98;;;-0.20;91.90;;;;;;5050810;28;20057;-55
2022/01/09 07:14:47;;;;;;;21.92;11.52;;;-0.10;91.90;;;;;;5053492;28;20079;-55
2022/01/09 07:17:13;;;;;;;26.67;11.90;;;-0.10;91.90;;;;;;5040333;28;20112;-53
2022/01/09 07:19:38;;;;;;;28.83;12.93;;;-0.10;91.80;;;;;;5046934;28;20468;-55
2022/01/09 07:22:05;;;;;;;24.52;12.35;;;-0.10;91.80;;;;;;5051650;28;20098;-54
2022/01/09 07:24:31;;;;;;;24.60;12.30;;;-0.20;91.80;;;;;;5045672;28;20115;-51
2022/01/09 07:26:57;;;;;;;25.35;11.98;;;-0.20;91.80;;;;;;5047004;28;20140;-54
2022/01/09 07:29:22;;;;;;;26.13;11.52;;;-0.20;91.90;;;;;;5037008;28;20138;-53
2022/01/09 07:31:51;;;;;;;24.45;12.63;;;-0.20;91.90;;;;;;5039269;28;20025;-53
2022/01/09 07:34:17;;;;;;;21.52;10.40;;;-0.20;92.00;;;;;;5053129;28;20025;-53
2022/01/09 07:36:43;;;;;;;25.73;12.70;;;-0.20;92.00;;;;;;5051898;28;20028;-55
2022/01/09 07:39:09;;;;;;;25.15;12.80;;;-0.20;92.10;;;;;;5052892;28;20100;-54
2022/01/09 07:41:34;;;;;;;26.90;13.43;;;-0.20;91.90;;;;;;5052637;28;20021;-56
2022/01/09 07:44:00;;;;;;;31.30;13.82;;;-0.20;92.00;;;;;;5045818;28;20033;-55
2022/01/09 07:46:26;;;;;;;28.85;15.23;;;-0.20;92.10;;;;;;5042931;28;20017;-55
2022/01/09 07:48:52;;;;;;;24.48;12.40;;;-0.20;92.10;;;;;;5058271;28;20025;-54
2022/01/09 07:51:17;;;;;;;28.90;13.60;;;-0.20;92.30;;;;;;5050123;28;20026;-55
2022/01/09 07:53:43;;;;;;;31.65;11.93;;;-0.10;92.30;;;;;;5034595;28;20384;-55
2022/01/09 07:56:08;;;;;;;23.45;11.15;;;-0.20;92.20;;;;;;5055290;28;20033;-56
2022/01/09 07:58:34;;;;;;;22.75;11.57;;;-0.10;92.30;;;;;;5056120;28;20104;-55
2022/01/09 08:01:00;;;;;;;36.67;13.80;;;-0.10;92.20;;;;;;5055092;28;20032;-53
2022/01/09 08:03:25;;;;;;;28.55;11.48;;;-0.20;92.20;;;;;;5055754;28;20074;-56
2022/01/09 08:05:51;;;;;;;25.75;15.18;;;-0.20;92.30;;;;;;5055723;28;20420;-56
2022/01/09 08:08:17;;;;;;;28.80;12.48;;;-0.20;92.30;;;;;;5055118;28;20465;-54
2022/01/09 08:10:42;;;;;;;21.70;10.45;;;-0.10;92.30;;;;;;5062012;28;20020;-54
2022/01/09 08:13:08;;;;;;;30.25;13.20;;;-0.10;92.30;;;;;;5063081;28;20021;-55
2022/01/09 08:15:34;;;;;;;25.05;12.48;;;-0.10;92.40;;;;;;5055661;28;20092;-53
2022/01/09 08:17:59;;;;;;;23.17;11.60;;;-0.20;92.30;;;;;;5042127;28;20171;-56
2022/01/09 08:20:25;;;;;;;22.10;11.57;;;-0.10;92.40;;;;;;5043202;28;20103;-56
2022/01/09 08:22:51;;;;;;;20.25;11.30;;;-0.10;92.40;;;;;;5044740;28;20025;-54
2022/01/09 08:25:18;;;;;;;23.92;11.13;;;-0.10;92.40;;;;;;5049377;28;20021;-56
2022/01/09 08:27:45;;;;;;;24.58;14.18;;;-0.10;92.40;;;;;;5041819;28;20044;-56
2022/01/09 08:30:13;;;;;;;21.15;12.60;;;-0.10;92.40;;;;;;5053407;28;20020;-56
2022/01/09 08:32:39;;;;;;;16.80;9.65;;;0.00;92.30;;;;;;5066063;28;20032;-52
2022/01/09 08:35:06;;;;;;;18.70;9.77;;;0.00;92.30;;;;;;5050749;28;20384;-52
2022/01/09 08:37:32;;;;;;;20.55;10.35;;;0.00;92.40;;;;;;5046831;28;20465;-56
2022/01/09 08:39:58;;;;;;;22.50;10.98;;;0.00;92.40;;;;;;5059071;28;20035;-56
2022/01/09 08:42:23;;;;;;;27.08;12.77;;;0.00;92.50;;;;;;5062765;28;20037;-55
2022/01/09 08:44:49;;;;;;;20.23;10.23;;;-0.10;92.40;;;;;;5055608;28;20025;-54
2022/01/09 08:47:15;;;;;;;18.60;9.50;;;-0.10;92.50;;;;;;5054315;28;20029;-52
2022/01/09 08:49:40;;;;;;;22.30;10.77;;;0.00;92.60;;;;;;5055061;28;20049;-56
2022/01/09 08:52:06;;;;;;;20.65;10.55;;;0.00;92.60;;;;;;5046833;28;20108;-53
2022/01/09 08:54:32;;;;;;;25.00;11.20;;;0.00;92.60;;;;;;5054830;28;20021;-56
2022/01/09 08:56:58;;;;;;;24.83;10.95;;;0.00;92.70;;;;;;5047920;28;20021;-56
2022/01/09 08:59:26;;;;;;;16.75;9.25;;;0.00;92.70;;;;;;5039962;28;20512;-53
2022/01/09 09:01:52;;;;;;;24.55;13.70;;;0.00;92.70;;;;;;5054567;28;20021;-56
2022/01/09 09:04:18;;;;;;;25.38;11.18;;;0.00;92.80;;;;;;5054169;28;20029;-54
2022/01/09 09:06:44;;;;;;;23.92;11.98;;;0.00;92.60;;;;;;5054586;28;20108;-54
2022/01/09 09:09:11;;;;;;;20.67;11.02;;;0.00;92.70;;;;;;5046114;28;20056;-54
2022/01/09 09:11:37;;;;;;;24.30;11.77;;;0.00;92.80;;;;;;5054176;28;20056;-52
2022/01/09 09:14:04;;;;;;;19.67;10.70;;;0.00;92.80;;;;;;5054506;28;20033;-55
2022/01/09 09:16:31;;;;;;;20.45;9.82;;;0.00;92.90;;;;;;5063709;28;20029;-55
2022/01/09 09:18:56;;;;;;;18.83;8.65;;;0.00;92.90;;;;;;5062405;28;20024;-56
2022/01/09 09:21:22;;;;;;;19.52;10.52;;;0.10;92.90;;;;;;5054129;28;20052;-56
2022/01/09 09:23:48;;;;;;;14.38;7.78;;;0.10;92.80;;;;;;5040840;28;20022;-52
2022/01/09 09:26:16;;;;;;;18.67;9.25;;;0.20;92.90;;;;;;5057624;28;20472;-56
2022/01/09 09:28:42;;;;;;;13.35;7.63;;;0.20;92.90;;;;;;5060557;28;20563;-56
2022/01/09 09:31:07;;;;;;;19.77;12.93;;;0.30;92.80;;;;;;5054069;28;20163;-55
2022/01/09 09:33:33;;;;;;;15.82;8.25;;;0.40;92.60;;;;;;5053366;28;20028;-53
2022/01/09 09:36:01;;;;;;;17.88;8.90;;;0.50;92.30;;;;;;5054074;28;20028;-55
2022/01/09 09:38:27;;;;;;;16.85;9.15;;;0.50;92.20;;;;;;5037949;28;20040;-55
2022/01/09 09:40:53;;;;;;;21.15;9.25;;;0.50;92.10;;;;;;5040527;28;20033;-56
2022/01/09 09:43:19;;;;;;;20.55;11.25;;;0.50;92.00;;;;;;5049746;28;20359;-56
2022/01/09 09:45:45;;;;;;;22.85;9.45;;;0.60;91.90;;;;;;5052095;28;20112;-56
2022/01/09 09:48:10;;;;;;;22.30;10.18;;;0.60;91.90;;;;;;5065809;28;20477;-53
2022/01/09 09:50:36;;;;;;;19.40;12.13;;;0.60;92.00;;;;;;5049757;28;20380;-54
2022/01/09 09:53:02;;;;;;;18.95;9.43;;;0.70;92.20;;;;;;5038963;28;20083;-54
2022/01/09 09:55:28;;;;;;;19.23;9.38;;;0.80;91.90;;;;;;5050721;28;20031;-53
2022/01/09 09:57:55;;;;;;;16.85;9.65;;;0.80;91.80;;;;;;5048830;28;20033;-56
2022/01/09 10:00:21;;;;;;;22.77;9.65;;;0.90;91.60;;;;;;5042902;28;20033;-55
2022/01/09 10:02:48;;;;;;;20.15;10.60;;;0.80;91.40;;;;;;5049266;28;20025;-54
2022/01/09 10:05:17;;;;;;;16.40;9.13;;;0.80;91.30;;;;;;5062484;28;20040;-52
2022/01/09 10:07:43;;;;;;;19.30;11.60;;;0.70;91.40;;;;;;5043463;28;20026;-56
2022/01/09 10:10:19;;;;;;;19.88;10.57;;;0.70;91.70;;;;;;5053490;28;20017;-57
2022/01/09 10:12:48;;;;;;;21.65;11.20;;;0.80;91.60;;;;;;5042650;28;20092;-55
2022/01/09 10:15:18;;;;;;;19.25;10.40;;;0.70;91.50;;;;;;5047016;28;20366;-56
2022/01/09 10:17:47;;;;;;;23.67;12.82;;;0.70;91.60;;;;;;5044638;28;20519;-56
2022/01/09 10:20:30;;;;;;;20.65;11.75;;;0.60;91.70;;;;;;5042302;28;20021;-56
2022/01/09 10:22:56;;;;;;;25.00;12.30;;;0.60;91.60;;;;;;5039727;28;20025;-55
2022/01/09 10:25:36;;;;;;;23.38;10.15;;;0.60;91.80;;;;;;5044412;28;20052;-55
2022/01/09 10:28:08;;;;;;;23.45;10.20;;;0.50;91.90;;;;;;5035895;28;20044;-55
2022/01/09 10:30:52;;;;;;;24.85;14.50;;;0.50;91.90;;;;;;5042055;28;20141;-56
2022/01/09 10:33:21;;;;;;;19.60;9.20;;;0.60;92.20;;;;;;5056351;28;20021;-54
2022/01/09 10:35:48;;;;;;;22.10;11.50;;;0.50;92.10;;;;;;5052827;28;20111;-56
2022/01/09 10:38:27;;;;;;;19.70;9.32;;;0.50;92.10;;;;;;5052986;28;20380;-56
2022/01/09 10:40:57;;;;;;;19.83;10.38;;;0.50;92.10;;;;;;5039927;28;20087;-55
2022/01/09 10:43:25;;;;;;;18.10;11.10;;;0.50;92.20;;;;;;5064979;28;20028;-56
2022/01/09 10:46:01;;;;;;;25.98;10.82;;;0.50;92.30;;;;;;5048983;28;20039;-56
2022/01/09 10:48:44;;;;;;;21.50;10.00;;;0.50;92.30;;;;;;5042876;28;20469;-56
2022/01/09 10:51:12;;;;;;;23.35;10.75;;;0.50;92.40;;;;;;5033505;28;20026;-56
2022/01/09 10:53:39;;;;;;;26.50;14.23;;;0.50;92.40;;;;;;5051993;28;20104;-54
2022/01/09 10:56:19;;;;;;;18.48;9.45;;;0.60;92.50;;;;;;5051794;28;20115;-55
2022/01/09 10:58:48;;;;;;;19.48;9.63;;;0.60;92.40;;;;;;5053048;28;20041;-54
2022/01/09 11:01:17;;;;;;;20.40;12.52;;;0.60;92.40;;;;;;5052722;28;20029;-55
2022/01/09 11:03:48;;;;;;;17.00;9.73;;;0.60;92.40;;;;;;5052953;28;20116;-53
2022/01/09 11:06:15;;;;;;;16.55;9.18;;;0.60;92.30;;;;;;5053010;28;20029;-56
2022/01/09 11:08:41;;;;;;;23.30;11.85;;;0.60;92.30;;;;;;5047023;28;20362;-53
2022/01/09 11:11:17;;;;;;;21.23;11.00;;;0.60;92.30;;;;;;5052508;28;20028;-56
2022/01/09 11:13:45;;;;;;;19.63;9.85;;;0.70;92.50;;;;;;5051851;28;20039;-56
2022/01/09 11:19:01;;;;;;;19.42;9.57;;;0.70;92.40;;;;;;5049135;28;20109;-56
2022/01/09 11:21:26;;;;;;;15.80;8.77;;;0.80;92.40;;;;;;5052446;28;20056;-56
2022/01/09 11:23:59;;;;;;;20.10;9.90;;;0.80;92.40;;;;;;5050188;28;20033;-53
2022/01/09 11:26:36;;;;;;;19.80;12.25;;;0.80;92.40;;;;;;5044336;28;20018;-56
2022/01/09 11:29:06;;;;;;;17.98;9.13;;;0.90;92.60;;;;;;5044215;28;20454;-55
2022/01/09 11:31:40;;;;;;;16.52;8.77;;;1.00;92.30;;;;;;5045629;28;20026;-56
2022/01/09 11:34:38;;;;;;;15.45;8.80;;;1.00;92.20;;;;;;5056142;28;20096;-56
2022/01/09 11:37:15;;;;;;;16.90;9.10;;;1.00;92.20;;;;;;5056745;28;20024;-56
2022/01/09 11:39:43;;;;;;;20.83;10.30;;;1.00;92.10;;;;;;5056342;28;20021;-53
2022/01/09 11:42:15;;;;;;;19.50;9.48;;;1.00;92.10;;;;;;5051992;28;20035;-54
2022/01/09 11:44:59;;;;;;;24.10;13.07;;;1.00;92.20;;;;;;5049640;28;20028;-57
2022/01/09 11:47:25;;;;;;;16.95;9.50;;;0.90;92.50;;;;;;5056376;28;20033;-55
2022/01/09 11:49:54;;;;;;;18.48;10.82;;;0.90;92.40;;;;;;5056119;28;20025;-54
2022/01/09 11:52:21;;;;;;;18.88;8.48;;;1.00;92.40;;;;;;5048318;28;20461;-55
2022/01/09 11:54:51;;;;;;;21.42;9.02;;;1.00;92.50;;;;;;5048997;28;20025;-56
2022/01/09 11:57:36;;;;;;;18.88;9.48;;;1.00;92.60;;;;;;5056036;28;20117;-55
2022/01/09 12:00:06;;;;;;;19.52;10.80;;;1.10;92.70;;;;;;5050050;28;20380;-56
2022/01/09 12:02:34;;;;;;;18.00;8.90;;;1.10;92.70;;;;;;5041714;28;20056;-56
2022/01/09 12:05:06;;;;;;;21.73;9.57;;;1.10;92.40;;;;;;5061228;28;20036;-52
2022/01/09 12:07:34;;;;;;;17.83;9.55;;;1.10;92.40;;;;;;5056137;28;20025;-53
2022/01/09 12:10:03;;;;;;;21.05;10.18;;;1.10;92.70;;;;;;5056120;28;20060;-52
2022/01/09 12:12:31;;;;;;;18.40;9.30;;;1.10;92.50;;;;;;5055855;28;20035;-56
2022/01/09 12:15:03;;;;;;;19.88;9.63;;;1.10;92.60;;;;;;5050305;28;20033;-54
2022/01/09 12:17:39;;;;;;;16.60;8.68;;;1.10;92.70;;;;;;5059439;28;20021;-54
2022/01/09 12:20:23;;;;;;;19.75;11.20;;;1.10;92.70;;;;;;5060900;28;20078;-53
2022/01/09 12:22:51;;;;;;;20.30;10.73;;;1.10;92.70;;;;;;5047644;28;20067;-52
2022/01/09 12:25:25;;;;;;;28.40;11.95;;;1.10;92.70;;;;;;5066322;28;20079;-55
2022/01/09 12:27:54;;;;;;;23.42;11.25;;;1.10;92.80;;;;;;5055628;28;20029;-56
2022/01/09 12:30:54;;;;;;;23.17;13.07;;;1.10;92.80;;;;;;5054448;28;20025;-53
2022/01/09 12:33:31;;;;;;;29.40;10.85;;;1.10;93.00;;;;;;5044228;28;20036;-53
2022/01/09 12:36:00;;;;;;;26.95;11.73;;;1.10;92.90;;;;;;5055797;28;20104;-53
2022/01/09 12:38:29;;;;;;;24.88;13.73;;;1.10;92.90;;;;;;5055244;28;20112;-53
2022/01/09 12:40:57;;;;;;;33.40;12.60;;;1.10;93.10;;;;;;5048903;28;20032;-56
2022/01/09 12:43:24;;;;;;;19.10;9.73;;;1.10;92.90;;;;;;5061861;28;20029;-53